Drummond Island, MI

3:25 AM EDT on September 05, 2015 (GMT -0400)
Potagannissing Bay Front | | Change Station
CLOSE
Current Station
Personal Weather Station
Location: Drummond Island, MI
Elevation: 587 ft
Nearby Weather Stations

Elev 587 ft 46.06 °N, 83.67 °W | Updated 18 seconds ago

Overcast
Overcast
66.4 °F
Feels Like 66.4 °F
N
4.0
Wind Variable Wind from ESE
Gusts 8.0 mph

Today
High -- | Low -- °F
--% Chance of Precip.
Yesterday
High -- | Low -- °F
Precip. -- in
7:00 AM 8:06 PM
Waning Gibbous, 51% visible
Pressure 30.09 in
Visibility 10.0 miles
Clouds Overcast 9000 ft
Dew Point 64 °F
Humidity 91%
Rainfall 0.00 in
Snow Depth Not available.
UV 0 out of 12
Pollen 10.10 out of 12
Air Quality Not available.
Flu Activity Not available.
METAR KDRM 050714Z AUTO 11005KT 10SM OVC090 21/16 A3009 RMK AO2 T02140160
Pressure 30.09 in
Visibility 10.0 miles
Clouds Overcast 9000 ft
Dew Point 64 °F
Humidity 91%
Rainfall 0.00 in
Snow Depth Not available.
UV 0 out of 12
Pollen 10.10 out of 12
Air Quality Not available.
Flu Activity Not available.
METAR KDRM 050714Z AUTO 11005KT 10SM OVC090 21/16 A3009 RMK AO2 T02140160
Nowcast | as of 3:00 am EDT on September 5, 2015

At 4 am...partly cloudy. Areas of fog. Temperature 67. East winds 6 mph. Areas of fog. At 8 am...partly cloudy. Temperature 65. East winds 7 mph.

×

10-Day Weather Forecast

×

Almanac

Astronomy

Sep. 05, 2015 Rise Set
Actual Time
Civil Twilight
Nautical Twilight
Astronomical Twilight
Moon
Length of Visible Light
Length of Day
Tomorrow will be .
, % of the Moon is Illuminated

Today's Extremes

State Highs State Lows

Community

WunderPhotos

Upload Photos

1,852,430 photos uploaded!

WunderBlogs® & News

Nearby

Air Quality

  Air Quality AQ Index Pollutant
Not available.

Snow Depth

Station Depth Elevation

Earthquake Activity

City Distance Mag. Time & Date
Minimum magnitude displayed is 2.5.

Coastal Water Temperatures

Place Temperature

Stations

Nearby Weather Stations

Station Location Temp. Windchill Dew Point Humidity Wind Precip. Elev Updated Type